createdAt,value
2023-02-16T00:01:22.632Z,38.12
2023-02-16T00:02:54.922Z,36.02
2023-02-16T00:04:26.229Z,37.74
2023-02-16T00:05:57.786Z,38.76
2023-02-16T00:07:29.189Z,35.78
2023-02-16T00:09:00.616Z,36.55
2023-02-16T00:10:31.889Z,37.93
2023-02-16T00:12:03.220Z,36.97
2023-02-16T00:13:34.588Z,37.37
2023-02-16T00:15:05.892Z,37.66
2023-02-16T00:16:37.146Z,39.92
2023-02-16T00:18:08.482Z,37.00
2023-02-16T00:19:39.992Z,37.96
2023-02-16T00:21:11.660Z,37.65
2023-02-16T00:22:43.154Z,36.99
2023-02-16T00:24:14.525Z,37.14
2023-02-16T00:25:45.816Z,37.07
2023-02-16T00:27:17.136Z,39.63
2023-02-16T00:28:48.702Z,37.21
2023-02-16T00:30:20.041Z,36.40
2023-02-16T00:31:51.569Z,37.48
2023-02-16T00:33:22.994Z,36.88
2023-02-16T00:34:54.472Z,36.65
2023-02-16T00:36:25.919Z,37.35
2023-02-16T00:37:57.357Z,38.08
2023-02-16T00:39:28.812Z,39.12
2023-02-16T00:41:00.276Z,37.99
2023-02-16T00:42:31.854Z,39.80
2023-02-16T00:44:03.116Z,39.01
2023-02-16T00:45:34.416Z,38.37
2023-02-16T00:47:05.861Z,37.89
2023-02-16T00:48:37.084Z,38.20
2023-02-16T00:50:08.510Z,38.37
2023-02-16T00:51:39.860Z,37.92
2023-02-16T00:53:16.391Z,42.13
2023-02-16T00:54:47.944Z,40.62
2023-02-16T00:56:19.230Z,38.40
2023-02-16T00:57:50.625Z,38.09
2023-02-16T00:59:21.893Z,37.64
2023-02-16T01:00:53.286Z,37.17
2023-02-16T01:02:24.540Z,38.40
2023-02-16T01:03:55.965Z,37.27
2023-02-16T01:05:27.321Z,35.85
2023-02-16T01:06:58.698Z,38.84
2023-02-16T01:08:30.024Z,38.82
2023-02-16T01:10:01.299Z,39.17
2023-02-16T01:11:32.729Z,39.26
2023-02-16T01:13:04.230Z,37.17
2023-02-16T01:14:35.623Z,36.28
2023-02-16T01:16:07.347Z,37.77
2023-02-16T01:17:43.804Z,37.70
2023-02-16T01:19:15.367Z,40.13
2023-02-16T01:20:46.780Z,38.25
2023-02-16T01:22:18.213Z,39.76
2023-02-16T01:23:49.804Z,38.21
2023-02-16T01:25:21.088Z,37.92
2023-02-16T01:26:52.373Z,39.10
2023-02-16T01:28:23.625Z,37.15
2023-02-16T01:29:55.171Z,37.05
2023-02-16T01:31:26.682Z,36.87
2023-02-16T01:32:58.114Z,37.30
2023-02-16T01:34:29.542Z,38.63
2023-02-16T01:36:00.792Z,36.75
2023-02-16T01:37:32.046Z,37.54
2023-02-16T01:39:03.429Z,37.14
2023-02-16T01:40:34.827Z,37.36
2023-02-16T01:42:06.579Z,36.89
2023-02-16T01:43:37.882Z,38.23
2023-02-16T01:45:09.146Z,37.63
2023-02-16T01:46:40.539Z,38.76
2023-02-16T01:48:12.029Z,38.30
2023-02-16T01:49:43.322Z,36.44
2023-02-16T01:51:14.587Z,37.19
2023-02-16T01:52:46.087Z,38.91
2023-02-16T01:54:17.451Z,40.20
2023-02-16T01:55:48.852Z,36.56
2023-02-16T01:57:20.692Z,38.37
2023-02-16T01:58:51.998Z,35.57
2023-02-16T02:00:23.235Z,34.52
2023-02-16T02:01:54.663Z,38.18
2023-02-16T02:03:25.974Z,37.38
2023-02-16T02:04:57.390Z,37.25
2023-02-16T02:06:28.866Z,35.01
2023-02-16T02:08:01.358Z,37.80
2023-02-16T02:09:32.645Z,37.05
2023-02-16T02:11:04.230Z,36.43
2023-02-16T02:12:35.650Z,37.12
2023-02-16T02:14:07.014Z,38.82
2023-02-16T02:15:38.491Z,37.64
2023-02-16T02:17:09.732Z,36.74
2023-02-16T02:18:41.029Z,39.27
2023-02-16T02:20:12.437Z,38.53
2023-02-16T02:21:44.111Z,37.47
2023-02-16T02:23:15.328Z,37.21
2023-02-16T02:24:46.686Z,37.96
2023-02-16T02:26:18.037Z,37.60
2023-02-16T02:27:50.456Z,36.94
2023-02-16T02:29:23.763Z,38.21
2023-02-16T02:30:56.095Z,37.99
2023-02-16T02:32:29.115Z,38.88
2023-02-16T02:34:06.131Z,38.23
2023-02-16T02:35:37.370Z,36.67
2023-02-16T02:37:08.683Z,38.03
2023-02-16T02:38:40.076Z,37.54
2023-02-16T02:40:11.764Z,36.56
2023-02-16T02:41:43.040Z,35.66
2023-02-16T02:43:14.564Z,37.93
2023-02-16T02:44:45.965Z,36.56
2023-02-16T02:46:17.271Z,36.12
2023-02-16T02:47:48.698Z,38.45
2023-02-16T02:49:20.045Z,38.33
2023-02-16T02:50:51.596Z,36.92
2023-02-16T02:52:23.206Z,36.72
2023-02-16T02:53:54.756Z,35.61
2023-02-16T02:55:26.157Z,37.84
2023-02-16T02:56:57.519Z,39.39
2023-02-16T02:58:29.088Z,37.27
2023-02-16T03:00:00.832Z,37.80
2023-02-16T03:01:32.345Z,37.48
2023-02-16T03:03:03.808Z,38.27
2023-02-16T03:04:35.113Z,36.62
2023-02-16T03:06:06.487Z,38.50
2023-02-16T03:07:38.137Z,38.45
2023-02-16T03:09:09.484Z,36.95
2023-02-16T03:10:40.925Z,37.10
2023-02-16T03:12:12.405Z,36.70
2023-02-16T03:13:43.994Z,38.48
2023-02-16T03:15:15.374Z,37.02
2023-02-16T03:16:46.962Z,37.17
2023-02-16T03:18:18.367Z,37.14
2023-02-16T03:19:50.027Z,38.24
2023-02-16T03:21:21.630Z,37.59
2023-02-16T03:22:53.215Z,38.33
2023-02-16T03:24:24.703Z,37.76
2023-02-16T03:25:56.272Z,37.41
2023-02-16T03:27:27.536Z,36.58
2023-02-16T03:28:59.138Z,37.01
2023-02-16T03:30:30.707Z,39.27
2023-02-16T03:32:02.347Z,36.89
2023-02-16T03:33:33.633Z,39.33
2023-02-16T03:35:04.857Z,37.12
2023-02-16T03:36:36.268Z,36.43
2023-02-16T03:38:07.782Z,39.05
2023-02-16T03:39:40.596Z,39.13
2023-02-16T03:41:12.236Z,38.77
2023-02-16T03:42:43.727Z,35.21
2023-02-16T03:44:15.231Z,37.21
2023-02-16T03:45:47.384Z,36.87
2023-02-16T03:47:18.685Z,36.69
2023-02-16T03:48:49.913Z,37.50
2023-02-16T03:50:21.198Z,38.98
2023-02-16T03:51:52.478Z,38.54
2023-02-16T03:53:23.848Z,39.05
2023-02-16T03:54:55.119Z,38.02
2023-02-16T03:56:26.442Z,36.56
2023-02-16T03:57:57.904Z,37.97
2023-02-16T03:59:29.324Z,36.68
2023-02-16T04:01:00.652Z,39.22
2023-02-16T04:02:31.927Z,37.70
2023-02-16T04:04:03.390Z,39.95
2023-02-16T04:05:34.748Z,36.86
2023-02-16T04:07:06.026Z,39.63
2023-02-16T04:08:37.552Z,38.26
2023-02-16T04:10:08.967Z,40.26
2023-02-16T04:11:40.444Z,37.73
2023-02-16T04:13:11.754Z,37.69
2023-02-16T04:14:43.781Z,38.93
2023-02-16T04:16:15.172Z,38.64
2023-02-16T04:17:46.498Z,38.95
2023-02-16T04:19:23.177Z,38.31
2023-02-16T04:20:54.455Z,37.90
2023-02-16T04:22:25.742Z,37.86
2023-02-16T04:23:57.216Z,40.63
2023-02-16T04:25:28.790Z,40.26
2023-02-16T04:27:00.076Z,37.71
2023-02-16T04:28:31.330Z,37.64
2023-02-16T04:30:02.744Z,40.59
2023-02-16T04:31:34.464Z,38.14
2023-02-16T04:33:05.947Z,41.16
2023-02-16T04:34:37.242Z,43.18
2023-02-16T04:36:08.582Z,38.46
2023-02-16T04:37:39.867Z,37.97
2023-02-16T04:39:11.455Z,39.99
2023-02-16T04:40:43.106Z,38.95
2023-02-16T04:42:14.595Z,38.94
2023-02-16T04:43:46.191Z,38.43
2023-02-16T04:45:17.563Z,38.46
2023-02-16T04:46:49.228Z,39.57
2023-02-16T04:48:20.617Z,40.04
2023-02-16T04:49:52.144Z,39.53
2023-02-16T04:51:23.609Z,40.42
2023-02-16T04:52:54.864Z,40.08
2023-02-16T04:54:26.397Z,39.57
2023-02-16T04:55:57.977Z,38.86
2023-02-16T04:57:29.704Z,40.31
2023-02-16T04:59:42.583Z,38.61
2023-02-16T05:01:13.768Z,39.10
2023-02-16T05:02:45.412Z,39.81
2023-02-16T05:04:16.771Z,39.06
2023-02-16T05:05:48.153Z,38.44
2023-02-16T05:07:19.358Z,40.55
2023-02-16T05:08:50.558Z,39.57
2023-02-16T05:10:22.198Z,39.17
2023-02-16T05:11:53.520Z,41.66
2023-02-16T05:13:25.371Z,42.51
2023-02-16T05:14:56.757Z,39.34
2023-02-16T05:16:28.043Z,38.13
2023-02-16T05:17:59.476Z,41.22
2023-02-16T05:19:30.902Z,39.24
2023-02-16T05:21:02.536Z,39.43
2023-02-16T05:22:34.007Z,38.74
2023-02-16T05:24:05.243Z,43.17
2023-02-16T05:25:36.534Z,41.06
2023-02-16T05:27:07.920Z,42.12
2023-02-16T05:28:39.234Z,39.42
2023-02-16T05:30:10.670Z,40.21
2023-02-16T05:31:42.382Z,39.34
2023-02-16T05:33:13.698Z,41.78
2023-02-16T05:34:45.065Z,41.06
2023-02-16T05:36:16.322Z,43.32
2023-02-16T05:37:47.642Z,41.70
2023-02-16T05:39:19.000Z,40.87
2023-02-16T05:40:50.371Z,40.60
2023-02-16T05:42:22.100Z,39.07
2023-02-16T05:43:53.623Z,41.00
2023-02-16T05:45:24.981Z,41.73
2023-02-16T05:46:56.437Z,40.26
2023-02-16T05:48:27.815Z,39.78
2023-02-16T05:49:59.426Z,40.22
2023-02-16T05:51:31.079Z,39.33
2023-02-16T05:53:02.402Z,38.74
2023-02-16T05:54:33.667Z,42.33
2023-02-16T05:56:07.385Z,42.69
2023-02-16T05:57:38.957Z,40.93
2023-02-16T05:59:10.419Z,40.26
2023-02-16T06:00:41.655Z,39.79
2023-02-16T06:02:13.191Z,40.46
2023-02-16T06:03:44.777Z,40.73
2023-02-16T06:05:16.075Z,42.00
2023-02-16T06:06:47.359Z,43.67
2023-02-16T06:08:18.933Z,42.82
2023-02-16T06:09:50.301Z,41.53
2023-02-16T06:11:21.856Z,42.27
2023-02-16T06:12:53.228Z,39.52
2023-02-16T06:14:24.438Z,41.33
2023-02-16T06:15:55.790Z,41.94
2023-02-16T06:17:27.082Z,45.98
2023-02-16T06:19:03.512Z,42.48
2023-02-16T06:20:55.005Z,39.89
2023-02-16T06:22:26.705Z,40.92
2023-02-16T06:23:58.147Z,41.99
2023-02-16T06:25:29.355Z,40.71
2023-02-16T06:27:00.716Z,40.71
2023-02-16T06:28:32.159Z,42.08
2023-02-16T06:30:03.435Z,41.36
2023-02-16T06:31:36.573Z,39.69
2023-02-16T06:33:08.907Z,39.45
2023-02-16T06:34:40.242Z,40.26
2023-02-16T06:36:11.526Z,40.64
2023-02-16T06:37:42.940Z,39.57
2023-02-16T06:39:14.470Z,39.55
2023-02-16T06:40:45.922Z,39.88
2023-02-16T06:42:17.394Z,40.57
2023-02-16T06:43:49.040Z,38.89
2023-02-16T06:45:20.306Z,38.71
2023-02-16T06:46:51.672Z,40.07
2023-02-16T06:48:23.355Z,40.54
2023-02-16T06:49:55.206Z,39.53
2023-02-16T06:51:26.587Z,41.18
2023-02-16T06:52:57.925Z,39.23
2023-02-16T06:54:29.674Z,39.40
2023-02-16T06:56:00.974Z,39.59
2023-02-16T06:57:33.698Z,38.78
2023-02-16T06:59:05.093Z,38.55
2023-02-16T07:00:38.908Z,37.48
2023-02-16T07:02:10.216Z,40.03
2023-02-16T07:03:42.506Z,37.74
2023-02-16T07:05:14.000Z,38.52
2023-02-16T07:06:45.293Z,42.32
2023-02-16T07:08:16.548Z,39.91
2023-02-16T07:09:48.058Z,38.87
2023-02-16T07:11:19.841Z,40.10
2023-02-16T07:12:51.339Z,38.10
2023-02-16T07:14:24.097Z,38.60
2023-02-16T07:15:55.636Z,41.78
2023-02-16T07:17:27.227Z,39.82
2023-02-16T07:18:58.631Z,39.00
2023-02-16T07:20:30.208Z,38.42
2023-02-16T07:22:01.642Z,38.92
2023-02-16T07:23:32.984Z,38.49
2023-02-16T07:25:04.222Z,35.47
2023-02-16T07:26:35.453Z,38.79
2023-02-16T07:28:06.928Z,38.71
2023-02-16T07:29:38.200Z,39.53
2023-02-16T07:31:09.603Z,38.96
2023-02-16T07:32:41.053Z,39.17
2023-02-16T07:34:12.822Z,38.61
2023-02-16T07:35:44.225Z,39.49
2023-02-16T07:37:15.484Z,35.77
2023-02-16T07:38:46.899Z,36.62
2023-02-16T07:40:18.173Z,37.74
2023-02-16T07:41:49.499Z,35.36
2023-02-16T07:43:20.790Z,35.78
2023-02-16T07:44:52.165Z,35.54
2023-02-16T07:46:23.728Z,37.53
2023-02-16T07:47:55.085Z,37.01
2023-02-16T07:49:26.331Z,35.90
2023-02-16T07:50:57.901Z,38.75
2023-02-16T07:52:29.481Z,36.02
2023-02-16T07:54:00.788Z,37.49
2023-02-16T07:55:32.083Z,34.21
2023-02-16T07:57:03.418Z,36.27
2023-02-16T07:58:34.687Z,38.18
2023-02-16T08:00:05.888Z,35.74
2023-02-16T08:01:37.700Z,33.61
2023-02-16T08:03:09.086Z,33.68
2023-02-16T08:04:40.511Z,35.25
2023-02-16T08:06:12.004Z,36.73
2023-02-16T08:07:44.694Z,34.89
2023-02-16T08:09:16.925Z,35.11
2023-02-16T08:10:48.185Z,35.94
2023-02-16T08:12:19.463Z,34.17
2023-02-16T08:13:50.967Z,34.56
2023-02-16T08:15:22.242Z,33.98
2023-02-16T08:16:55.545Z,35.00
2023-02-16T08:18:28.027Z,33.03
2023-02-16T08:19:59.544Z,35.28
2023-02-16T08:21:30.956Z,34.81
2023-02-16T08:23:02.428Z,36.07
2023-02-16T08:24:39.054Z,34.74
2023-02-16T08:26:10.416Z,33.33
2023-02-16T08:27:41.758Z,34.04
2023-02-16T08:29:12.985Z,34.52
2023-02-16T08:30:49.472Z,33.42
2023-02-16T08:32:21.812Z,29.96
2023-02-16T08:33:53.158Z,32.24
2023-02-16T08:35:24.500Z,33.39
2023-02-16T08:36:55.796Z,33.67
2023-02-16T08:38:27.201Z,33.03
2023-02-16T08:39:58.616Z,31.79
2023-02-16T08:41:30.549Z,31.95
2023-02-16T08:43:02.263Z,33.96
2023-02-16T08:44:33.811Z,30.79
2023-02-16T08:46:05.742Z,31.96
2023-02-16T08:47:37.457Z,31.62
2023-02-16T08:49:09.026Z,30.29
2023-02-16T08:50:40.755Z,33.33
2023-02-16T08:52:12.257Z,34.97
2023-02-16T08:53:43.785Z,32.31
2023-02-16T08:55:15.308Z,31.33
2023-02-16T08:56:48.074Z,34.02
2023-02-16T08:58:19.553Z,35.63
2023-02-16T08:59:51.036Z,32.08
2023-02-16T09:01:22.895Z,31.49
2023-02-16T09:02:55.961Z,32.51
2023-02-16T09:04:27.466Z,31.24
2023-02-16T09:05:58.884Z,32.52
2023-02-16T09:07:30.380Z,32.61
2023-02-16T09:09:01.856Z,31.40
2023-02-16T09:10:33.618Z,32.75
2023-02-16T09:12:04.899Z,32.62
2023-02-16T09:13:37.153Z,32.74
2023-02-16T09:15:08.609Z,34.32
2023-02-16T09:16:40.271Z,31.13
2023-02-16T09:18:11.749Z,33.70
2023-02-16T09:19:43.041Z,32.60
2023-02-16T09:21:14.588Z,34.01
2023-02-16T09:22:47.572Z,33.26
2023-02-16T09:24:18.997Z,32.61
2023-02-16T09:25:50.846Z,34.09
2023-02-16T09:27:22.153Z,30.03
2023-02-16T09:28:53.480Z,30.79
2023-02-16T09:30:24.837Z,29.79
2023-02-16T09:31:56.455Z,29.01
2023-02-16T09:33:27.826Z,29.54
2023-02-16T09:34:59.154Z,28.25
2023-02-16T09:36:30.521Z,32.25
2023-02-16T09:38:01.795Z,28.61
2023-02-16T09:39:34.395Z,28.01
2023-02-16T09:41:37.133Z,31.69
2023-02-16T09:43:09.591Z,31.89
2023-02-16T09:44:40.868Z,31.41
2023-02-16T09:46:12.262Z,29.49
2023-02-16T09:47:53.847Z,30.49
2023-02-16T09:49:25.187Z,30.91
2023-02-16T09:50:56.632Z,30.54
2023-02-16T09:52:27.962Z,30.82
2023-02-16T09:53:59.310Z,28.74
2023-02-16T09:55:30.679Z,27.38
2023-02-16T09:57:01.973Z,29.05
2023-02-16T10:00:56.809Z,25.05
2023-02-16T10:02:28.142Z,28.49
2023-02-16T10:03:59.557Z,28.97
2023-02-16T10:05:30.899Z,27.72
2023-02-16T10:07:02.223Z,29.72
2023-02-16T10:08:34.024Z,29.27
2023-02-16T10:10:05.617Z,28.81
2023-02-16T10:11:36.973Z,25.82
2023-02-16T10:13:08.298Z,29.57
2023-02-16T10:14:59.794Z,27.47
2023-02-16T10:16:31.074Z,25.40
2023-02-16T10:18:02.705Z,28.32
2023-02-16T10:19:34.613Z,26.79
2023-02-16T10:21:06.340Z,28.60
2023-02-16T10:22:38.144Z,28.01
2023-02-16T10:24:09.856Z,25.87
2023-02-16T10:25:41.166Z,29.63
2023-02-16T10:27:12.466Z,32.26
2023-02-16T10:28:44.112Z,29.25
2023-02-16T10:30:15.663Z,30.78
2023-02-16T10:31:47.144Z,29.36
2023-02-16T10:33:18.583Z,30.01
2023-02-16T10:34:50.209Z,30.21
2023-02-16T10:38:35.035Z,31.23
2023-02-16T10:40:06.443Z,32.65
2023-02-16T10:41:42.811Z,29.30
2023-02-16T10:43:55.557Z,29.82
2023-02-16T10:45:27.396Z,33.54
2023-02-16T10:46:58.760Z,30.78
2023-02-16T10:48:30.111Z,33.15
2023-02-16T10:50:01.812Z,30.99
2023-02-16T10:51:33.335Z,30.02
2023-02-16T10:53:04.894Z,31.34
2023-02-16T10:54:51.264Z,29.87
2023-02-16T10:56:22.809Z,30.79
2023-02-16T10:57:54.874Z,31.16
2023-02-16T10:59:26.171Z,29.04
2023-02-16T11:00:57.741Z,28.62
2023-02-16T11:02:55.623Z,28.10
2023-02-16T11:04:27.133Z,29.77
2023-02-16T11:05:58.748Z,30.57
2023-02-16T11:09:45.400Z,27.62
2023-02-16T11:11:16.908Z,27.93
2023-02-16T11:12:48.669Z,29.86
2023-02-16T11:14:20.124Z,29.14
2023-02-16T11:15:56.468Z,28.42
2023-02-16T11:17:27.799Z,30.07
2023-02-16T11:19:19.352Z,28.21
2023-02-16T11:20:51.417Z,28.99
2023-02-16T11:22:22.838Z,30.36
2023-02-16T11:24:30.870Z,29.44
2023-02-16T11:26:02.644Z,29.53
2023-02-16T11:29:30.203Z,29.79
2023-02-16T11:31:01.775Z,30.03
2023-02-16T11:32:53.353Z,30.73
2023-02-16T11:34:24.869Z,23.85
2023-02-16T11:35:56.351Z,27.51
2023-02-16T11:37:32.699Z,29.88
2023-02-16T11:39:14.234Z,27.82
2023-02-16T11:40:46.122Z,28.03
2023-02-16T11:42:17.419Z,29.18
2023-02-16T11:44:18.941Z,27.50
2023-02-16T11:45:50.405Z,29.33
2023-02-16T11:47:22.276Z,28.00
2023-02-16T11:48:58.622Z,28.85
2023-02-16T11:50:31.296Z,26.07
2023-02-16T11:52:32.763Z,26.69
2023-02-16T11:54:32.033Z,29.66
2023-02-16T11:56:20.708Z,30.50
2023-02-16T11:58:22.188Z,28.02
2023-02-16T12:00:28.803Z,31.92
2023-02-16T12:02:05.322Z,26.11
2023-02-16T12:03:51.840Z,27.75
2023-02-16T12:05:23.464Z,30.05
2023-02-16T12:06:55.076Z,28.40
2023-02-16T12:08:26.614Z,30.54
2023-02-16T12:09:57.959Z,30.74
2023-02-16T12:11:29.571Z,32.66
2023-02-16T12:13:05.331Z,37.83
2023-02-16T12:14:36.896Z,31.17
2023-02-16T12:16:15.380Z,31.59
2023-02-16T12:18:11.689Z,29.11
2023-02-16T12:19:58.283Z,34.36
2023-02-16T12:21:30.075Z,31.13
2023-02-16T12:23:09.791Z,32.12
2023-02-16T12:24:41.535Z,32.18
2023-02-16T12:26:24.821Z,31.24
2023-02-16T12:27:56.911Z,32.46
2023-02-16T12:29:33.473Z,32.10
2023-02-16T12:31:05.353Z,30.60
2023-02-16T12:33:09.709Z,32.72
2023-02-16T12:34:48.867Z,34.23
2023-02-16T12:37:00.011Z,34.59
2023-02-16T12:39:20.693Z,35.63
2023-02-16T12:41:08.568Z,35.22
2023-02-16T12:44:37.430Z,35.60
2023-02-16T12:47:21.052Z,37.50
2023-02-16T12:48:53.057Z,36.01
2023-02-16T12:51:05.754Z,37.48
2023-02-16T12:54:39.857Z,34.55
2023-02-16T12:56:34.203Z,34.60
2023-02-16T12:58:05.929Z,36.04
2023-02-16T12:59:37.967Z,35.48
2023-02-16T13:01:09.820Z,34.77
2023-02-16T13:03:04.823Z,34.66
2023-02-16T13:04:47.116Z,33.36
2023-02-16T13:06:28.470Z,35.69
2023-02-16T13:08:21.945Z,36.79
2023-02-16T13:09:53.402Z,32.27
2023-02-16T13:11:34.880Z,31.83
2023-02-16T13:13:20.685Z,32.52
2023-02-16T13:15:10.946Z,32.49
2023-02-16T13:16:48.328Z,27.62
2023-02-16T13:18:46.517Z,35.05
2023-02-16T13:20:42.944Z,32.50
2023-02-16T13:22:30.527Z,31.94
2023-02-16T13:24:26.682Z,36.35
2023-02-16T13:25:58.365Z,33.55
2023-02-16T13:27:29.866Z,34.32
2023-02-16T13:29:01.378Z,35.87
2023-02-16T13:30:32.953Z,34.72
2023-02-16T13:32:24.664Z,34.62
2023-02-16T13:34:06.261Z,32.16
2023-02-16T13:35:37.548Z,31.56
2023-02-16T13:37:08.970Z,31.74
2023-02-16T13:38:40.289Z,34.77
2023-02-16T13:40:23.771Z,35.49
2023-02-16T13:42:12.202Z,33.21
2023-02-16T13:43:43.734Z,30.28
2023-02-16T13:45:26.401Z,33.45
2023-02-16T13:47:18.151Z,32.81
2023-02-16T13:48:49.479Z,33.23
2023-02-16T13:50:20.932Z,34.68
2023-02-16T13:51:52.297Z,34.83
2023-02-16T13:53:23.570Z,33.35
2023-02-16T13:54:55.121Z,34.66
2023-02-16T13:56:26.721Z,31.83
2023-02-16T13:57:58.180Z,35.71
2023-02-16T13:59:29.513Z,33.96
2023-02-16T14:01:00.956Z,34.20
2023-02-16T14:02:32.404Z,30.64
2023-02-16T14:04:03.742Z,34.96
2023-02-16T14:05:35.346Z,33.83
2023-02-16T14:07:06.685Z,33.27
2023-02-16T14:08:38.211Z,30.99
2023-02-16T14:10:09.763Z,30.16
2023-02-16T14:11:41.173Z,33.44
2023-02-16T14:13:12.401Z,33.66
2023-02-16T14:14:43.794Z,32.39
2023-02-16T14:16:15.266Z,33.19
2023-02-16T14:17:46.827Z,31.72
2023-02-16T14:19:18.441Z,32.69
2023-02-16T14:20:50.783Z,32.72
2023-02-16T14:22:22.208Z,30.58
2023-02-16T14:24:13.150Z,30.89
2023-02-16T14:25:44.511Z,32.94
2023-02-16T14:27:16.027Z,32.17
2023-02-16T14:28:47.449Z,33.91
2023-02-16T14:30:18.976Z,34.25
2023-02-16T14:31:50.393Z,34.52
2023-02-16T14:33:21.748Z,32.32
2023-02-16T14:34:54.380Z,31.80
2023-02-16T14:36:25.824Z,33.02
2023-02-16T14:37:57.274Z,32.07
2023-02-16T14:39:28.679Z,31.96
2023-02-16T14:41:00.122Z,32.39
2023-02-16T14:42:31.583Z,31.96
2023-02-16T14:44:02.965Z,32.56
2023-02-16T14:45:34.491Z,36.47
2023-02-16T14:47:05.860Z,34.71
2023-02-16T14:48:37.314Z,33.73
2023-02-16T14:50:08.870Z,33.83
2023-02-16T14:51:40.169Z,33.07
2023-02-16T14:53:11.571Z,34.75
2023-02-16T14:54:43.006Z,32.48
2023-02-16T14:56:14.406Z,32.49
2023-02-16T14:57:45.705Z,33.32
2023-02-16T14:59:22.107Z,34.31
2023-02-16T15:00:53.583Z,33.40
2023-02-16T15:02:25.018Z,33.57
2023-02-16T15:03:56.508Z,36.17
2023-02-16T15:05:32.918Z,33.92
2023-02-16T15:07:05.316Z,34.94
2023-02-16T15:08:36.787Z,35.10
2023-02-16T15:10:08.279Z,35.74
2023-02-16T15:11:39.658Z,35.05
2023-02-16T15:13:10.978Z,37.73
2023-02-16T15:14:42.362Z,34.84
2023-02-16T15:16:13.725Z,34.59
2023-02-16T15:17:45.549Z,34.35
2023-02-16T15:19:16.942Z,35.20
2023-02-16T15:20:48.430Z,34.54
2023-02-16T15:22:19.725Z,35.63
2023-02-16T15:23:51.045Z,32.06
2023-02-16T15:25:22.729Z,29.24
2023-02-16T15:26:54.384Z,33.34
2023-02-16T15:28:25.721Z,35.86
2023-02-16T15:29:57.218Z,32.18
2023-02-16T15:31:28.672Z,30.70
2023-02-16T15:33:00.365Z,31.10
2023-02-16T15:34:32.015Z,31.63
2023-02-16T15:36:03.551Z,30.30
2023-02-16T15:37:35.112Z,33.58
2023-02-16T15:39:06.428Z,33.31
2023-02-16T15:40:43.137Z,31.01
2023-02-16T15:42:14.731Z,33.94
2023-02-16T15:43:46.272Z,33.69
2023-02-16T15:45:17.786Z,28.82
2023-02-16T15:46:49.282Z,29.52
2023-02-16T15:48:20.845Z,30.98
2023-02-16T15:49:52.357Z,31.31
2023-02-16T15:51:23.852Z,31.24
2023-02-16T15:53:15.207Z,29.62
2023-02-16T15:54:46.818Z,29.85
2023-02-16T15:56:18.160Z,33.49
2023-02-16T15:57:49.991Z,30.17
2023-02-16T15:59:21.613Z,31.96
2023-02-16T16:01:00.011Z,30.05
2023-02-16T16:02:46.266Z,35.17
2023-02-16T16:04:18.043Z,35.73
2023-02-16T16:05:51.739Z,37.58
2023-02-16T16:07:47.889Z,58.08
2023-02-16T16:09:21.171Z,39.48
2023-02-16T16:10:53.093Z,29.41
2023-02-16T16:12:25.045Z,29.77
2023-02-16T16:13:56.476Z,27.15
2023-02-16T16:15:49.905Z,29.01
2023-02-16T16:17:33.316Z,29.67
2023-02-16T16:19:17.058Z,28.98
2023-02-16T16:20:55.106Z,29.06
2023-02-16T16:22:44.988Z,28.13
2023-02-16T16:24:17.629Z,27.40
2023-02-16T16:25:54.476Z,29.49
2023-02-16T16:35:38.203Z,29.04
2023-02-16T16:37:39.098Z,28.41
2023-02-16T16:39:10.780Z,29.05
2023-02-16T16:41:09.316Z,28.16
2023-02-16T16:42:41.351Z,28.65
2023-02-16T16:44:12.940Z,26.47
2023-02-16T16:45:44.558Z,26.50
2023-02-16T16:47:26.114Z,27.14
2023-02-16T16:48:57.778Z,29.26
2023-02-16T16:50:30.056Z,29.55
2023-02-16T16:52:06.841Z,25.97
2023-02-16T16:53:52.449Z,26.28
2023-02-16T16:55:24.250Z,26.91
2023-02-16T16:56:56.372Z,24.86
2023-02-16T16:58:28.180Z,27.01
2023-02-16T17:00:00.695Z,28.83
2023-02-16T17:01:32.717Z,26.39
2023-02-16T17:03:04.550Z,24.71
2023-02-16T17:04:36.542Z,26.25
2023-02-16T17:06:08.436Z,25.46
2023-02-16T17:07:54.406Z,24.10
2023-02-16T17:09:29.131Z,24.38
2023-02-16T17:11:00.707Z,26.00
2023-02-16T17:12:48.626Z,28.18
2023-02-16T17:16:31.013Z,23.85
2023-02-16T17:18:09.416Z,24.25
2023-02-16T17:20:00.877Z,25.83
2023-02-16T17:21:38.337Z,24.23
2023-02-16T17:25:26.081Z,24.13
2023-02-16T17:27:08.298Z,25.38
2023-02-16T17:28:44.763Z,24.78
2023-02-16T17:30:16.232Z,23.87
2023-02-16T17:31:49.554Z,24.85
2023-02-16T17:33:52.332Z,24.03
2023-02-16T17:35:43.820Z,27.06
2023-02-16T17:37:16.068Z,25.99
2023-02-16T17:38:48.720Z,26.04
2023-02-16T17:40:28.483Z,22.09
2023-02-16T17:42:01.455Z,25.23
2023-02-16T17:43:32.907Z,23.42
2023-02-16T17:45:04.204Z,24.08
2023-02-16T17:46:35.562Z,24.11
2023-02-16T17:48:07.003Z,22.79
2023-02-16T17:49:51.024Z,24.33
2023-02-16T17:51:24.297Z,25.18
2023-02-16T17:53:00.839Z,23.83
2023-02-16T17:56:58.656Z,22.43
2023-02-16T17:58:30.259Z,23.42
2023-02-16T18:00:27.264Z,22.21
2023-02-16T18:02:13.912Z,21.89
2023-02-16T18:04:11.643Z,20.40
2023-02-16T18:05:43.402Z,23.36
2023-02-16T18:07:19.937Z,21.84
2023-02-16T18:09:15.033Z,22.47
2023-02-16T18:10:46.741Z,22.01
2023-02-16T18:12:18.536Z,22.72
2023-02-16T18:13:50.151Z,22.57
2023-02-16T18:15:22.173Z,21.99
2023-02-16T18:16:59.106Z,23.86
2023-02-16T18:18:46.308Z,24.69
2023-02-16T18:20:19.251Z,21.86
2023-02-16T18:21:50.724Z,26.12
2023-02-16T18:23:22.125Z,21.21
2023-02-16T18:25:27.216Z,21.81
2023-02-16T18:26:58.670Z,19.38
2023-02-16T18:28:39.195Z,20.21
2023-02-16T18:30:16.260Z,20.27
2023-02-16T18:32:39.067Z,20.90
2023-02-16T18:34:11.519Z,21.85
2023-02-16T18:35:43.204Z,22.21
2023-02-16T18:37:57.723Z,22.30
2023-02-16T18:39:29.346Z,20.48
2023-02-16T18:41:05.972Z,19.85
2023-02-16T18:42:37.423Z,18.95
2023-02-16T18:44:09.137Z,21.72
2023-02-16T18:45:40.742Z,17.86
2023-02-16T18:47:12.407Z,17.29
2023-02-16T18:48:43.967Z,17.81
2023-02-16T18:50:15.595Z,15.74
2023-02-16T18:51:47.363Z,16.47
2023-02-16T18:53:18.985Z,16.30
2023-02-16T18:54:50.421Z,16.45
2023-02-16T18:56:21.981Z,14.98
2023-02-16T18:58:08.275Z,15.39
2023-02-16T18:59:40.453Z,15.53
2023-02-16T19:01:17.164Z,12.06
2023-02-16T19:03:05.361Z,14.53
2023-02-16T19:04:37.147Z,16.86
2023-02-16T19:06:08.901Z,17.95
2023-02-16T19:07:40.538Z,14.19
2023-02-16T19:09:12.113Z,15.96
2023-02-16T19:10:43.754Z,15.34
2023-02-16T19:12:35.640Z,12.69
2023-02-16T19:14:09.250Z,11.98
2023-02-16T19:15:40.969Z,11.65
2023-02-16T19:17:13.148Z,14.44
2023-02-16T19:18:44.954Z,17.11
2023-02-16T19:20:20.863Z,15.28
2023-02-16T19:22:13.398Z,17.05
2023-02-16T19:23:45.973Z,20.10
2023-02-16T19:25:24.753Z,17.01
2023-02-16T19:27:17.568Z,19.99
2023-02-16T19:28:54.743Z,19.87
2023-02-16T19:30:36.703Z,18.41
2023-02-16T19:32:08.589Z,19.13
2023-02-16T19:33:40.358Z,21.16
2023-02-16T19:35:17.625Z,19.78
2023-02-16T19:36:49.833Z,21.19
2023-02-16T19:38:21.406Z,18.76
2023-02-16T19:39:53.837Z,20.94
2023-02-16T19:41:26.239Z,21.26
2023-02-16T19:43:00.004Z,21.21
2023-02-16T19:44:45.270Z,20.25
2023-02-16T19:46:17.335Z,19.03
2023-02-16T19:47:49.585Z,20.22
2023-02-16T19:49:21.400Z,19.28
2023-02-16T19:51:36.477Z,18.73
2023-02-16T19:53:08.396Z,22.73
2023-02-16T19:54:40.218Z,22.94
2023-02-16T19:56:12.054Z,21.38
2023-02-16T19:58:03.303Z,20.11
2023-02-16T19:59:48.676Z,23.22
2023-02-16T20:01:21.074Z,22.59
2023-02-16T20:03:04.085Z,23.44
2023-02-16T20:04:41.684Z,23.49
2023-02-16T20:06:13.683Z,26.55
2023-02-16T20:07:45.323Z,23.52
2023-02-16T20:10:10.408Z,27.73
2023-02-16T20:11:47.975Z,26.63
2023-02-16T20:13:20.603Z,27.08
2023-02-16T20:14:52.460Z,29.06
2023-02-16T20:16:43.808Z,30.67
2023-02-16T20:18:31.678Z,29.05
2023-02-16T20:20:22.255Z,30.66
2023-02-16T20:22:03.805Z,29.37
2023-02-16T20:23:40.464Z,33.70
2023-02-16T20:25:21.552Z,33.78
2023-02-16T20:29:29.250Z,30.62
2023-02-16T20:31:01.349Z,30.08
2023-02-16T20:32:47.137Z,30.37
2023-02-16T20:34:23.809Z,32.03
2023-02-16T20:35:55.072Z,31.62
2023-02-16T20:37:34.676Z,31.59
2023-02-16T20:39:06.296Z,32.66
2023-02-16T20:40:38.180Z,33.03
2023-02-16T20:42:09.625Z,33.98
2023-02-16T20:43:41.416Z,33.67
2023-02-16T20:45:13.543Z,31.45
2023-02-16T20:46:45.234Z,32.57
2023-02-16T20:48:16.585Z,31.85